createdAt,value
2017-11-06T00:02:15.480Z,3.60
2017-11-06T00:04:42.019Z,4.10
2017-11-06T00:07:08.456Z,5.05
2017-11-06T00:09:34.940Z,3.55
2017-11-06T00:12:01.419Z,4.00
2017-11-06T00:14:28.612Z,3.53
2017-11-06T00:16:55.926Z,3.22
2017-11-06T00:19:23.114Z,3.80
2017-11-06T00:21:50.309Z,3.45
2017-11-06T00:24:16.774Z,3.00
2017-11-06T00:26:43.978Z,2.70
2017-11-06T00:29:10.418Z,3.15
2017-11-06T00:31:36.937Z,3.12
2017-11-06T00:34:03.367Z,4.00
2017-11-06T00:36:29.881Z,4.25
2017-11-06T00:38:57.061Z,3.45
2017-11-06T00:41:23.530Z,3.85
2017-11-06T00:43:50.010Z,3.20
2017-11-06T00:46:16.453Z,3.15
2017-11-06T00:48:42.929Z,3.08
2017-11-06T00:51:09.393Z,2.58
2017-11-06T00:53:36.558Z,3.37
2017-11-06T00:56:03.028Z,4.45
2017-11-06T00:58:29.597Z,3.28
2017-11-06T01:00:56.777Z,3.40
2017-11-06T01:03:23.254Z,3.80
2017-11-06T01:05:49.722Z,3.58
2017-11-06T01:08:16.914Z,4.32
2017-11-06T01:10:43.362Z,3.53
2017-11-06T01:13:09.861Z,4.15
2017-11-06T01:15:36.299Z,3.75
2017-11-06T01:18:02.770Z,4.05
2017-11-06T01:20:29.217Z,4.25
2017-11-06T01:22:55.666Z,3.75
2017-11-06T01:25:22.125Z,3.97
2017-11-06T01:27:48.549Z,4.50
2017-11-06T01:30:15.741Z,3.50
2017-11-06T01:32:42.194Z,3.55
2017-11-06T01:35:09.406Z,4.03
2017-11-06T01:37:35.922Z,3.17
2017-11-06T01:40:02.437Z,3.85
2017-11-06T01:42:28.873Z,3.47
2017-11-06T01:44:55.342Z,3.15
2017-11-06T01:47:21.813Z,3.00
2017-11-06T01:49:49.047Z,2.20
2017-11-06T01:52:15.473Z,2.70
2017-11-06T01:54:41.942Z,2.45
2017-11-06T01:57:08.398Z,3.17
2017-11-06T01:59:34.879Z,3.00
2017-11-06T02:02:01.379Z,2.62
2017-11-06T02:04:27.866Z,2.55
2017-11-06T02:06:54.378Z,2.70
2017-11-06T02:09:20.856Z,2.90
2017-11-06T02:11:48.087Z,2.85
2017-11-06T02:14:14.776Z,2.60
2017-11-06T02:16:41.244Z,2.40
2017-11-06T02:19:07.746Z,2.50
2017-11-06T02:21:34.262Z,3.10
2017-11-06T02:24:01.510Z,2.55
2017-11-06T02:26:28.714Z,3.00
2017-11-06T02:28:55.187Z,3.28
2017-11-06T02:31:21.875Z,2.58
2017-11-06T02:33:48.364Z,2.50
2017-11-06T02:36:14.867Z,2.80
2017-11-06T02:38:41.356Z,3.22
2017-11-06T02:41:07.793Z,2.80
2017-11-06T02:43:34.275Z,3.30
2017-11-06T02:46:00.766Z,3.87
2017-11-06T02:48:27.263Z,3.53
2017-11-06T02:50:53.701Z,2.90
2017-11-06T02:53:20.922Z,3.97
2017-11-06T02:55:47.440Z,2.80
2017-11-06T02:58:13.898Z,3.03
2017-11-06T03:00:41.107Z,3.33
2017-11-06T03:03:07.587Z,2.92
2017-11-06T03:05:34.025Z,2.95
2017-11-06T03:08:00.473Z,2.72
2017-11-06T03:10:26.921Z,3.00
2017-11-06T03:12:53.440Z,3.00
2017-11-06T03:15:19.870Z,2.83
2017-11-06T03:17:46.382Z,2.67
2017-11-06T03:20:12.857Z,3.00
2017-11-06T03:22:39.465Z,3.47
2017-11-06T03:25:05.952Z,2.80
2017-11-06T03:27:32.387Z,3.15
2017-11-06T03:29:58.854Z,3.05
2017-11-06T03:32:25.296Z,4.37
2017-11-06T03:34:51.831Z,3.58
2017-11-06T03:37:18.282Z,3.60
2017-11-06T03:39:44.738Z,3.70
2017-11-06T03:42:11.589Z,3.80
2017-11-06T03:44:38.014Z,4.37
2017-11-06T03:47:04.561Z,4.47
2017-11-06T03:49:31.030Z,4.05
2017-11-06T03:51:57.456Z,3.72
2017-11-06T03:54:24.655Z,3.95
2017-11-06T03:56:51.087Z,3.70
2017-11-06T03:59:17.526Z,3.72
2017-11-06T04:01:44.683Z,4.05
2017-11-06T04:04:11.146Z,3.70
2017-11-06T04:06:37.577Z,3.80
2017-11-06T04:09:04.053Z,3.72
2017-11-06T04:11:30.515Z,4.87
2017-11-06T04:13:56.947Z,3.72
2017-11-06T04:16:23.398Z,4.62
2017-11-06T04:18:49.909Z,5.10
2017-11-06T04:21:16.347Z,5.87
2017-11-06T04:23:42.798Z,4.40
2017-11-06T04:26:09.238Z,5.65
2017-11-06T04:28:35.665Z,13.62
2017-11-06T04:31:02.154Z,18.45
2017-11-06T04:33:30.283Z,10.38
2017-11-06T04:35:57.739Z,8.52
2017-11-06T04:38:24.257Z,7.68
2017-11-06T04:40:50.762Z,9.15
2017-11-06T04:43:17.234Z,7.25
2017-11-06T04:45:43.706Z,9.55
2017-11-06T04:48:10.287Z,7.37
2017-11-06T04:50:36.770Z,6.93
2017-11-06T04:53:03.197Z,8.18
2017-11-06T04:55:30.417Z,9.13
2017-11-06T04:57:56.845Z,9.40
2017-11-06T05:00:23.371Z,9.40
2017-11-06T05:02:49.844Z,10.32
2017-11-06T05:05:16.297Z,11.95
2017-11-06T05:07:42.789Z,13.77
2017-11-06T05:10:09.280Z,16.02
2017-11-06T05:12:35.730Z,15.27
2017-11-06T05:15:02.214Z,16.48
2017-11-06T05:17:28.691Z,19.50
2017-11-06T05:19:55.166Z,20.40
2017-11-06T05:22:21.581Z,27.85
2017-11-06T05:24:48.072Z,21.83
2017-11-06T05:27:14.509Z,23.42
2017-11-06T05:29:41.708Z,25.35
2017-11-06T05:32:08.178Z,32.08
2017-11-06T05:34:34.638Z,30.52
2017-11-06T05:37:01.122Z,31.48
2017-11-06T05:39:27.598Z,32.22
2017-11-06T05:41:54.803Z,27.55
2017-11-06T05:44:21.249Z,30.10
2017-11-06T05:46:47.726Z,32.95
2017-11-06T05:49:14.898Z,33.03
2017-11-06T05:51:41.366Z,28.08
2017-11-06T05:54:07.820Z,27.40
2017-11-06T05:56:34.263Z,32.33
2017-11-06T05:59:00.770Z,32.38
2017-11-06T06:01:27.289Z,34.53
2017-11-06T06:03:53.736Z,32.15
2017-11-06T06:06:20.945Z,27.60
2017-11-06T06:08:47.377Z,29.45
2017-11-06T06:11:13.845Z,29.52
2017-11-06T06:13:40.273Z,33.58
2017-11-06T06:16:06.758Z,27.37
2017-11-06T06:18:33.170Z,24.45
2017-11-06T06:20:59.633Z,27.02
2017-11-06T06:23:26.102Z,22.92
2017-11-06T06:25:52.558Z,26.52
2017-11-06T06:28:18.986Z,26.70
2017-11-06T06:30:45.432Z,30.05
2017-11-06T06:33:11.867Z,30.40
2017-11-06T06:35:38.377Z,23.10
2017-11-06T06:38:04.802Z,31.70
2017-11-06T06:40:31.264Z,29.85
2017-11-06T06:42:57.688Z,26.05
2017-11-06T06:45:24.882Z,28.17
2017-11-06T06:47:52.044Z,30.05
2017-11-06T06:50:18.494Z,28.83
2017-11-06T06:52:44.923Z,27.15
2017-11-06T06:55:11.391Z,28.23
2017-11-06T06:57:37.855Z,29.20
2017-11-06T07:00:04.398Z,27.92
2017-11-06T07:02:30.914Z,28.30
2017-11-06T07:04:58.129Z,32.53
2017-11-06T07:07:24.643Z,29.10
2017-11-06T07:09:51.131Z,27.42
2017-11-06T07:12:18.280Z,34.60
2017-11-06T07:14:45.517Z,26.55
2017-11-06T07:17:11.985Z,32.17
2017-11-06T07:19:39.188Z,30.55
2017-11-06T07:22:05.624Z,25.02
2017-11-06T07:24:32.917Z,27.35
2017-11-06T07:27:00.082Z,34.00
2017-11-06T07:29:26.505Z,31.25
2017-11-06T07:31:53.011Z,29.42
2017-11-06T07:34:20.246Z,37.10
2017-11-06T07:36:47.473Z,31.90
2017-11-06T07:39:13.916Z,36.85
2017-11-06T07:41:40.386Z,36.55
2017-11-06T07:44:06.834Z,33.97
2017-11-06T07:46:34.006Z,39.65
2017-11-06T07:49:00.463Z,40.33
2017-11-06T07:51:26.907Z,30.75
2017-11-06T07:53:53.407Z,35.72
2017-11-06T07:56:19.905Z,37.00
2017-11-06T07:58:46.333Z,38.22
2017-11-06T08:01:12.794Z,32.47
2017-11-06T08:03:39.217Z,34.85
2017-11-06T08:06:05.699Z,40.30
2017-11-06T08:08:32.162Z,33.95
2017-11-06T08:10:59.351Z,35.70
2017-11-06T08:13:25.813Z,37.83
2017-11-06T08:15:52.261Z,39.78
2017-11-06T08:18:18.723Z,39.28
2017-11-06T08:20:45.226Z,35.45
2017-11-06T08:23:11.673Z,33.55
2017-11-06T08:25:38.206Z,42.67
2017-11-06T08:28:05.465Z,33.35
2017-11-06T08:30:31.978Z,39.95
2017-11-06T08:32:58.494Z,33.92
2017-11-06T08:35:24.976Z,31.37
2017-11-06T08:37:51.442Z,35.10
2017-11-06T08:40:17.944Z,30.48
2017-11-06T08:42:44.410Z,31.83
2017-11-06T08:45:10.853Z,36.03
2017-11-06T08:47:37.350Z,36.65
2017-11-06T08:50:04.618Z,33.10
2017-11-06T08:52:31.811Z,31.70
2017-11-06T08:54:58.235Z,30.52
2017-11-06T08:57:24.762Z,29.12
2017-11-06T08:59:51.182Z,29.52
2017-11-06T09:02:17.630Z,28.27
2017-11-06T09:04:44.056Z,32.08
2017-11-06T09:07:10.530Z,29.55
2017-11-06T09:09:37.005Z,30.23
2017-11-06T09:12:04.181Z,23.35
2017-11-06T09:14:30.714Z,26.20
2017-11-06T09:16:57.150Z,29.85
2017-11-06T09:19:23.618Z,33.53
2017-11-06T09:21:50.050Z,27.50
2017-11-06T09:24:16.497Z,30.52
2017-11-06T09:26:42.953Z,24.98
2017-11-06T09:29:10.126Z,23.50
2017-11-06T09:31:36.595Z,28.05
2017-11-06T09:34:03.010Z,27.25
2017-11-06T09:36:29.442Z,25.20
2017-11-06T09:38:55.892Z,31.33
2017-11-06T09:41:23.115Z,23.17
2017-11-06T09:43:49.566Z,24.55
2017-11-06T09:46:16.155Z,25.25
2017-11-06T09:48:42.615Z,24.02
2017-11-06T09:51:09.060Z,28.23
2017-11-06T09:53:35.501Z,24.40
2017-11-06T09:56:01.922Z,27.10
2017-11-06T09:58:28.381Z,30.12
2017-11-06T10:00:54.820Z,27.52
2017-11-06T10:03:22.018Z,27.45
2017-11-06T10:05:48.499Z,23.23
2017-11-06T10:08:14.953Z,24.77
2017-11-06T10:10:41.409Z,24.10
2017-11-06T10:13:07.869Z,24.37
2017-11-06T10:15:34.308Z,24.23
2017-11-06T10:18:00.757Z,21.62
2017-11-06T10:20:27.181Z,27.80
2017-11-06T10:22:53.741Z,24.15
2017-11-06T10:25:20.199Z,23.35
2017-11-06T10:27:46.717Z,26.00
2017-11-06T10:30:13.197Z,26.05
2017-11-06T10:32:39.723Z,29.08
2017-11-06T10:35:06.166Z,23.38
2017-11-06T10:37:32.611Z,24.87
2017-11-06T10:39:59.149Z,27.27
2017-11-06T10:42:25.601Z,27.52
2017-11-06T10:44:52.077Z,25.65
2017-11-06T10:47:19.278Z,24.15
2017-11-06T10:49:45.710Z,25.40
2017-11-06T10:52:12.306Z,27.17
2017-11-06T10:54:38.782Z,24.02
2017-11-06T10:57:05.270Z,24.63
2017-11-06T10:59:31.781Z,25.52
2017-11-06T11:01:58.288Z,28.95
2017-11-06T11:04:24.789Z,26.85
2017-11-06T11:06:51.402Z,30.10
2017-11-06T11:09:17.930Z,25.95
2017-11-06T11:11:45.130Z,30.15
2017-11-06T11:14:11.645Z,29.85
2017-11-06T11:16:38.131Z,26.62
2017-11-06T11:19:04.650Z,24.30
2017-11-06T11:21:31.128Z,24.52
2017-11-06T11:23:57.575Z,26.75
2017-11-06T11:26:24.045Z,24.73
2017-11-06T11:28:51.296Z,26.95
2017-11-06T11:31:17.781Z,28.75
2017-11-06T11:33:45.170Z,33.00
2017-11-06T11:36:11.695Z,30.00
2017-11-06T11:38:38.158Z,34.50
2017-11-06T11:41:04.673Z,27.67
2017-11-06T11:43:31.162Z,33.65
2017-11-06T11:45:57.661Z,26.60
2017-11-06T11:48:24.098Z,27.15
2017-11-06T11:50:50.545Z,27.98
2017-11-06T11:53:16.987Z,27.85
2017-11-06T11:55:44.166Z,28.27
2017-11-06T11:58:10.581Z,23.65
2017-11-06T12:00:37.834Z,25.02
2017-11-06T12:03:05.033Z,26.27
2017-11-06T12:05:31.457Z,27.65
2017-11-06T12:07:57.910Z,26.77
2017-11-06T12:10:24.368Z,23.98
2017-11-06T12:12:50.813Z,26.50
2017-11-06T12:15:17.254Z,24.52
2017-11-06T12:17:44.433Z,24.05
2017-11-06T12:20:10.986Z,31.90
2017-11-06T12:22:37.413Z,31.02
2017-11-06T12:25:03.917Z,33.10
2017-11-06T12:27:30.368Z,25.50
2017-11-06T12:29:56.873Z,29.08
2017-11-06T12:32:24.046Z,26.37
2017-11-06T12:34:50.531Z,29.83
2017-11-06T12:37:17.729Z,25.50
2017-11-06T12:39:44.236Z,25.52
2017-11-06T12:42:11.430Z,25.75
2017-11-06T12:44:37.955Z,28.95
2017-11-06T12:47:04.382Z,25.25
2017-11-06T12:49:30.838Z,25.98
2017-11-06T12:51:57.261Z,27.30
2017-11-06T12:54:23.698Z,23.45
2017-11-06T12:56:50.161Z,25.77
2017-11-06T12:59:17.463Z,24.42
2017-11-06T13:01:43.897Z,24.15
2017-11-06T13:04:10.345Z,25.25
2017-11-06T13:06:36.789Z,31.00
2017-11-06T13:09:03.280Z,27.58
2017-11-06T13:11:30.477Z,26.67
2017-11-06T13:13:56.946Z,26.92
2017-11-06T13:16:23.368Z,29.17
2017-11-06T13:18:49.815Z,29.25
2017-11-06T13:21:16.995Z,27.27
2017-11-06T13:23:43.441Z,26.92
2017-11-06T13:26:09.880Z,29.30
2017-11-06T13:28:36.350Z,32.90
2017-11-06T13:31:02.805Z,32.17
2017-11-06T13:33:29.982Z,29.85
2017-11-06T13:35:56.441Z,29.63
2017-11-06T13:38:22.870Z,29.08
2017-11-06T13:40:49.358Z,31.08
2017-11-06T13:43:16.628Z,35.85
2017-11-06T13:45:43.128Z,34.33
2017-11-06T13:48:09.575Z,35.33
2017-11-06T13:50:36.030Z,35.78
2017-11-06T13:53:02.506Z,35.17
2017-11-06T13:55:28.968Z,37.47
2017-11-06T13:57:55.415Z,34.33
2017-11-06T14:00:22.645Z,35.78
2017-11-06T14:02:49.850Z,31.95
2017-11-06T14:05:16.346Z,32.10
2017-11-06T14:07:42.830Z,30.65
2017-11-06T14:10:09.302Z,32.25
2017-11-06T14:12:36.536Z,36.30
2017-11-06T14:15:03.006Z,33.47
2017-11-06T14:17:30.220Z,33.75
2017-11-06T14:19:56.654Z,31.80
2017-11-06T14:22:23.864Z,34.83
2017-11-06T14:24:50.306Z,33.22
2017-11-06T14:27:16.756Z,32.00
2017-11-06T14:29:43.175Z,35.40
2017-11-06T14:32:09.637Z,33.88
2017-11-06T14:34:36.115Z,40.38
2017-11-06T14:37:02.549Z,39.63
2017-11-06T14:39:29.741Z,41.58
2017-11-06T14:41:56.172Z,37.25
2017-11-06T14:44:22.613Z,37.10
2017-11-06T14:46:49.066Z,36.55
2017-11-06T14:49:15.496Z,41.92
2017-11-06T14:51:41.947Z,40.10
2017-11-06T14:54:08.422Z,37.72
2017-11-06T14:56:34.903Z,36.63
2017-11-06T14:59:02.126Z,35.53
2017-11-06T15:01:28.620Z,37.85
2017-11-06T15:03:55.138Z,39.40
2017-11-06T15:06:21.664Z,38.97
2017-11-06T15:08:48.102Z,36.15
2017-11-06T15:11:14.600Z,38.17
2017-11-06T15:13:41.900Z,36.47
2017-11-06T15:16:08.420Z,34.25
2017-11-06T15:18:34.922Z,36.90
2017-11-06T15:21:01.442Z,46.42
2017-11-06T15:23:27.944Z,37.33
2017-11-06T15:25:54.456Z,34.75
2017-11-06T15:28:20.892Z,33.72
2017-11-06T15:30:48.086Z,37.03
2017-11-06T15:33:14.574Z,35.03
2017-11-06T15:35:41.072Z,35.15
2017-11-06T15:38:07.545Z,38.30
2017-11-06T15:40:34.046Z,34.25
2017-11-06T15:43:00.499Z,33.22
2017-11-06T15:45:26.970Z,32.08
2017-11-06T15:47:53.419Z,38.63
2017-11-06T15:50:19.905Z,43.80
2017-11-06T15:52:47.151Z,38.80
2017-11-06T15:55:14.365Z,38.67
2017-11-06T15:57:40.790Z,41.08
2017-11-06T16:00:07.325Z,38.60
2017-11-06T16:02:33.815Z,37.60
2017-11-06T16:05:01.034Z,33.00
2017-11-06T16:07:27.489Z,33.92
2017-11-06T16:09:53.964Z,30.23
2017-11-06T16:12:20.439Z,36.17
2017-11-06T16:14:46.951Z,35.63
2017-11-06T16:17:13.442Z,37.85
2017-11-06T16:19:39.918Z,29.60
2017-11-06T16:22:06.413Z,41.15
2017-11-06T16:24:33.609Z,30.90
2017-11-06T16:27:00.827Z,39.70
2017-11-06T16:29:27.312Z,51.35
2017-11-06T16:31:53.812Z,32.83
2017-11-06T16:34:20.310Z,31.40
2017-11-06T16:36:46.792Z,30.90
2017-11-06T16:39:13.247Z,30.15
2017-11-06T16:41:40.543Z,33.47
2017-11-06T16:44:07.750Z,29.30
2017-11-06T16:46:34.200Z,28.55
2017-11-06T16:49:00.661Z,30.33
2017-11-06T16:51:27.169Z,30.65
2017-11-06T16:53:53.588Z,34.17
2017-11-06T16:56:20.817Z,28.30
2017-11-06T16:58:47.298Z,32.17
2017-11-06T17:01:13.781Z,33.80
2017-11-06T17:03:40.277Z,28.08
2017-11-06T17:06:07.488Z,32.20
2017-11-06T17:08:33.987Z,25.65
2017-11-06T17:11:00.456Z,28.42
2017-11-06T17:13:26.942Z,29.55
2017-11-06T17:15:53.522Z,30.12
2017-11-06T17:18:20.031Z,37.30
2017-11-06T17:20:46.522Z,30.92
2017-11-06T17:23:12.993Z,29.33
2017-11-06T17:25:39.487Z,26.80
2017-11-06T17:28:05.978Z,28.90
2017-11-06T17:30:33.472Z,53.60
2017-11-06T17:32:59.977Z,30.77
2017-11-06T17:35:27.271Z,35.30
2017-11-06T17:37:53.755Z,39.53
2017-11-06T17:40:20.188Z,42.78
2017-11-06T17:42:46.735Z,53.90
2017-11-06T17:45:13.235Z,36.53
2017-11-06T17:47:39.711Z,32.78
2017-11-06T17:50:06.942Z,57.90
2017-11-06T17:52:33.416Z,34.08
2017-11-06T17:55:00.611Z,35.80
2017-11-06T17:57:27.116Z,39.20
2017-11-06T17:59:54.318Z,33.30
2017-11-06T18:02:20.852Z,41.35
2017-11-06T18:04:47.378Z,28.00
2017-11-06T18:07:13.837Z,39.88
2017-11-06T18:09:40.307Z,35.35
2017-11-06T18:12:06.783Z,37.22
2017-11-06T18:14:33.207Z,33.15
2017-11-06T18:16:59.706Z,31.30
2017-11-06T18:19:26.939Z,29.12
2017-11-06T18:21:53.499Z,25.17
2017-11-06T18:24:20.695Z,25.80
2017-11-06T18:26:47.178Z,26.70
2017-11-06T18:29:13.721Z,25.02
2017-11-06T18:31:40.986Z,26.30
2017-11-06T18:34:07.521Z,29.33
2017-11-06T18:36:35.451Z,30.75
2017-11-06T18:39:02.383Z,29.15
2017-11-06T18:41:29.428Z,30.52
2017-11-06T18:43:56.309Z,24.40
2017-11-06T18:46:22.862Z,26.55
2017-11-06T18:48:49.351Z,27.73
2017-11-06T18:51:15.825Z,23.73
2017-11-06T18:53:43.516Z,25.17
2017-11-06T18:56:12.597Z,24.05
2017-11-06T18:58:39.374Z,25.90
2017-11-06T19:01:07.012Z,33.30
2017-11-06T19:03:34.018Z,27.98
2017-11-06T19:06:01.342Z,23.45
2017-11-06T19:08:28.570Z,22.10
2017-11-06T19:10:55.038Z,22.55
2017-11-06T19:13:21.590Z,28.38
2017-11-06T19:15:48.069Z,23.90
2017-11-06T19:18:14.544Z,26.95
2017-11-06T19:20:41.049Z,26.30
2017-11-06T19:23:07.581Z,20.98
2017-11-06T19:25:34.109Z,19.12
2017-11-06T19:28:00.838Z,23.23
2017-11-06T19:30:28.180Z,21.73
2017-11-06T19:32:54.676Z,18.48
2017-11-06T19:35:21.161Z,24.98
2017-11-06T19:37:47.648Z,18.60
2017-11-06T19:40:14.125Z,16.10
2017-11-06T19:42:40.618Z,18.20
2017-11-06T19:45:07.845Z,20.33
2017-11-06T19:47:34.370Z,21.58
2017-11-06T19:50:00.843Z,17.87
2017-11-06T19:52:28.061Z,14.55
2017-11-06T19:54:55.323Z,18.12
2017-11-06T19:57:21.814Z,16.62
2017-11-06T19:59:48.289Z,17.92
2017-11-06T20:02:14.873Z,16.40
2017-11-06T20:04:41.589Z,11.65
2017-11-06T20:07:08.358Z,12.55
2017-11-06T20:09:35.902Z,15.57
2017-11-06T20:12:02.651Z,13.20
2017-11-06T20:14:29.462Z,11.82
2017-11-06T20:16:56.233Z,16.67
2017-11-06T20:19:22.986Z,11.95
2017-11-06T20:21:49.766Z,11.85
2017-11-06T20:24:16.513Z,12.95
2017-11-06T20:26:43.352Z,20.83
2017-11-06T20:29:10.184Z,13.55
2017-11-06T20:31:37.020Z,14.45
2017-11-06T20:34:03.835Z,16.40
2017-11-06T20:36:30.625Z,19.00
2017-11-06T20:38:57.481Z,14.85
2017-11-06T20:41:24.259Z,14.93
2017-11-06T20:43:51.104Z,15.25
2017-11-06T20:46:17.966Z,14.05
2017-11-06T20:48:44.866Z,13.68
2017-11-06T20:51:12.484Z,13.93
2017-11-06T20:53:40.028Z,17.50
2017-11-06T20:56:06.612Z,16.08
2017-11-06T20:58:33.083Z,18.23
2017-11-06T21:00:59.570Z,14.68
2017-11-06T21:03:26.766Z,15.25
2017-11-06T21:05:55.661Z,17.75
2017-11-06T21:08:22.142Z,20.58
2017-11-06T21:10:48.616Z,14.00
2017-11-06T21:13:15.035Z,12.90
2017-11-06T21:15:41.542Z,13.40
2017-11-06T21:18:07.991Z,17.62
2017-11-06T21:20:34.484Z,15.32
2017-11-06T21:23:01.707Z,12.30
2017-11-06T21:25:28.137Z,11.52
2017-11-06T21:27:54.596Z,13.30
2017-11-06T21:30:27.111Z,11.10
2017-11-06T21:32:54.331Z,13.57
2017-11-06T21:35:20.780Z,12.70
2017-11-06T21:37:47.225Z,13.85
2017-11-06T21:40:14.409Z,17.02
2017-11-06T21:42:40.914Z,12.40
2017-11-06T21:45:08.203Z,15.95
2017-11-06T21:47:34.661Z,18.08
2017-11-06T21:50:01.938Z,14.75
2017-11-06T21:52:28.402Z,15.43
2017-11-06T21:54:54.868Z,16.25
2017-11-06T21:57:21.307Z,21.23
2017-11-06T21:59:47.764Z,15.02
2017-11-06T22:02:14.214Z,17.70
2017-11-06T22:04:41.490Z,15.10
2017-11-06T22:07:07.957Z,15.00
2017-11-06T22:09:34.409Z,15.13
2017-11-06T22:12:00.884Z,12.32
2017-11-06T22:14:27.331Z,14.68
2017-11-06T22:16:53.778Z,11.65
2017-11-06T22:19:20.222Z,13.57
2017-11-06T22:21:46.710Z,12.75
2017-11-06T22:24:13.206Z,12.13
2017-11-06T22:26:39.713Z,14.40
2017-11-06T22:29:06.198Z,13.88
2017-11-06T22:31:32.636Z,12.00
2017-11-06T22:33:59.822Z,11.15
2017-11-06T22:36:26.294Z,11.85
2017-11-06T22:38:52.755Z,11.55
2017-11-06T22:41:19.978Z,12.37
2017-11-06T22:43:46.431Z,11.23
2017-11-06T22:46:13.635Z,16.60
2017-11-06T22:48:40.059Z,11.65
2017-11-06T22:51:06.502Z,16.77
2017-11-06T22:53:32.985Z,12.95
2017-11-06T22:56:00.190Z,15.80
2017-11-06T22:58:26.647Z,13.40
2017-11-06T23:00:53.106Z,25.08
2017-11-06T23:03:19.662Z,12.25
2017-11-06T23:05:46.112Z,12.43
2017-11-06T23:08:12.587Z,13.48
2017-11-06T23:10:39.058Z,12.20
2017-11-06T23:13:06.201Z,13.70
2017-11-06T23:15:32.714Z,11.43
2017-11-06T23:17:59.893Z,14.55
2017-11-06T23:20:26.313Z,11.40
2017-11-06T23:22:53.519Z,14.68
2017-11-06T23:25:19.990Z,14.07
2017-11-06T23:27:46.447Z,14.73
2017-11-06T23:30:12.946Z,13.88
2017-11-06T23:32:39.389Z,18.67
2017-11-06T23:35:05.860Z,17.27
2017-11-06T23:37:32.344Z,16.35
2017-11-06T23:39:58.846Z,13.48
2017-11-06T23:42:25.299Z,19.30
2017-11-06T23:44:51.786Z,18.70
2017-11-06T23:47:18.262Z,14.55
2017-11-06T23:49:44.745Z,20.15
2017-11-06T23:52:11.192Z,17.37
2017-11-06T23:54:37.680Z,22.20
2017-11-06T23:57:04.180Z,20.92
2017-11-06T23:59:31.634Z,23.48
